Tiempo atmosférico en la estación meteorológica de Machichaco, Bizkaia (93 m.)



Fecha
DESCASC
Temp. máxima en grados centígrados (hora)
DESCASC
Temp. mínima en grados centígrados (hora)
DESCASC
Temp. media en grados centígrados
DESCASC
Racha de viento máxima en m/sg (hora)
DESCASC
Velocidad máxima media en intervalos de 10 minutos(hora)
DESCASC
Precipitaciones diarias en mm
DESCASC
Precipitaciones de 00:00 a 06:00 en mm
DESCASC
Precipitaciones de 06:00 a 12:00 en mm
DESCASC
Precipitaciones de 12:00 a 18:00 en mm
DESCASC
Precipitaciones de 18:00 a 24:00 en mm
DESCASC
04-03-2021 15.8 (11:20) 10.9 (08:00) 13.3 6.94 (20:00) 5.28 (17:30) 0 0 0 0 0
03-03-2021 15.9 (11:10) 12.1 (08:10) 14 8.89 (16:50) 6.11 (17:20) 0 0 0 0 0
02-03-2021 20.1 (15:50) 12.7 (23:50) 16.4 12.5 (08:20) 7.22 (08:10) 0 0 0 0 0
01-03-2021 16.7 (12:30) 10 (01:20) 13.4 11.67 (11:20) 7.5 (09:30) 0.2 0.2 0 0 0
28-02-2021 11.5 (14:20) 7.2 (00:00) 9.3 12.22 (21:00) 8.33 (20:40) 5.8 0 0 0.2 5.6
27-02-2021 11.4 (03:40) 8.9 (00:00) 10.1 9.17 (08:30) 6.94 (08:30) 0 0 0 0 0
26-02-2021 13.1 (15:10) 10.7 (00:00) 11.9 6.67 (21:40) 5.28 (21:10) 0 0 0 0 0
25-02-2021 17.1 (01:50) 11.5 (00:00) 14.3 12.78 (05:30) 7.78 (02:50) 0 0 0 0 0
24-02-2021 -- (--) -- (--) -- 10.28 (09:30) 4.17 (09:20) 0 0 0 0 0
23-02-2021 20 (16:30) 8.3 (00:00) 14.2 11.67 (12:20) 5.56 (09:50) 0 0 0 0 0
22-02-2021 11.4 (17:10) 8 (00:00) 9.7 20.83 (01:00) 15.83 (05:30) 20 11.8 7.6 0.6 0
21-02-2021 18.7 (12:00) 8.1 (00:00) 13.4 20.28 (22:50) 14.17 (23:00) 16.6 0 0 0 16.6
20-02-2021 22.3 (14:10) 16.3 (00:00) 19.3 15 (09:40) 5.83 (09:30) 0 0 0 0 0
19-02-2021 20.8 (15:20) 10.6 (00:00) 15.7 16.94 (15:00) 8.06 (15:00) 0 0 0 0 0
18-02-2021 -- (--) -- (--) -- 14.72 (08:10) 11.11 (13:20) 0 0 0 0 0
17-02-2021 -- (--) -- (--) -- 10.28 (11:00) 6.11 (10:20) 0 0 0 0 0
16-02-2021 -- (--) -- (--) -- 25.83 (12:40) 14.72 (13:00) 0.2 0 0 0 0.2
15-02-2021 -- (--) -- (--) -- 23.06 (00:50) 15.83 (02:10) 0 0 0 0 0
14-02-2021 -- (--) -- (--) -- 20.56 (23:50) 13.61 (23:50) 0.2 0 0 0.2 0
13-02-2021 -- (--) -- (--) -- 7.5 (00:10) 5.56 (01:30) 0 0 0 0 0
12-02-2021 -- (--) -- (--) -- 28.06 (13:30) 21.11 (11:20) 11.8 2.4 4.6 4.8 0
11-02-2021 -- (--) -- (--) -- -- (--) -- (--) 0.2 0 0 0.2 0
10-02-2021 -- (--) -- (--) -- 27.78 (13:20) 21.67 (14:20) 0.8 0 0.4 0.4 0
09-02-2021 -- (--) -- (--) -- 17.5 (13:50) 9.17 (14:00) 1.6 0 0 1.4 0.2
08-02-2021 -- (--) -- (--) -- 17.22 (00:50) 11.67 (19:20) 0.4 0.2 0.2 0 0
07-02-2021 -- (--) -- (--) -- 19.17 (01:40) 15 (00:30) 3.2 1.8 1 0 0.4
06-02-2021 -- (--) -- (--) -- 20 (12:50) 16.39 (13:00) 11.4 0 1.6 9.4 0.4
05-02-2021 -- (--) -- (--) -- 8.33 (23:50) 6.39 (23:50) 0 0 0 0 0
04-02-2021 -- (--) -- (--) -- 12.22 (01:00) 7.22 (04:10) 6.8 0 0 0.2 6.6

Gráficas

Temp. máximas Temp. mínimas Temp. medias Precipitaciones Rachas de viento máximas Velocidades máximas media en intervalos de 10 minutos

Datos horarios

Fecha y hora oficial Temperatura (ºC) Velocidad del viento (km/h) Dirección del viento Racha (km/h) Dirección de racha Precipitación (mm) Presión (hPa) Tendencia (hPa) Humedad (%)
2021-03-05 23:00:00 10.3 18 Nordeste 23 Nordeste 0 -- -- 77
2021-03-05 22:00:00 10.3 17 Nordeste 23 Nordeste 0 -- -- 78
2021-03-05 21:00:00 10.1 4 Norte 13 Nordeste 0 -- -- 79
2021-03-05 20:00:00 9.9 6 Norte 20 Nordeste 0 -- -- 80
2021-03-05 19:00:00 10 14 Nordeste 19 Nordeste 0 -- -- 81
2021-03-05 18:00:00 10.3 15 Nordeste 20 Nordeste 0 -- -- 82
2021-03-05 17:00:00 10.7 15 Nordeste 22 Norte 0 -- -- 82
2021-03-05 16:00:00 11.6 12 Nordeste 20 Norte 0 -- -- 80
2021-03-05 15:00:00 12.1 12 Nordeste 16 Nordeste 0 -- -- 77
2021-03-05 14:00:00 12 9 Norte 13 Norte 0 -- -- 82
2021-03-05 13:00:00 12.3 4 Norte 12 Nordeste 0 -- -- 79
2021-03-05 12:00:00 11.8 6 Norte 17 Norte 0 -- -- 82
2021-03-05 11:00:00 11.9 4 Norte 17 Oeste 0 -- -- 84
2021-03-05 10:00:00 11.4 13 Oeste 18 Oeste 0 -- -- 89
2021-03-05 09:00:00 11.4 13 Oeste 17 Oeste 0 -- -- 88
2021-03-05 08:00:00 11.1 9 Sudoeste 11 Oeste 0 -- -- 89
2021-03-05 07:00:00 11.1 5 Oeste 9 Sudoeste 0 -- -- 89
2021-03-05 06:00:00 11.2 4 Sudoeste 10 Sudoeste 0 -- -- 89
2021-03-05 05:00:00 11.2 5 Sudoeste 10 Sudoeste 0 -- -- 92
2021-03-05 04:00:00 11.2 6 Oeste 8 Oeste 0 -- -- 92
2021-03-05 03:00:00 11.3 0 Calma 6 Noroeste 0 -- -- 92
2021-03-05 02:00:00 10.6 0 Calma 8 Este 0 -- -- 91
2021-03-05 01:00:00 11 8 Este 17 Sudeste 0 -- -- 84
2021-03-05 00:00:00 11.7 12 Sudeste 19 Este 0 -- -- 86
2021-03-04 23:00:00 11.6 13 Este 20 Este 0 -- -- 84
2021-03-04 22:00:00 11.9 14 Sudeste 25 Este 0 -- -- 80
2021-03-04 21:00:00 12.1 14 Sudeste 24 Este 0 -- -- 79
2021-03-04 20:00:00 12.3 15 Este 25 Este 0 -- -- 76
2021-03-04 19:00:00 12 15 Sudeste 24 Este 0 -- -- 80
2021-03-04 18:00:00 12.4 16 Este 24 Este 0 -- -- 90
2021-03-04 17:00:00 12.8 18 Este 22 Este 0 -- -- 88
2021-03-04 16:00:00 14.5 15 Este 23 Este 0 -- -- 72
2021-03-04 15:00:00 15.3 15 Este 21 Este 0 -- -- 65
2021-03-04 14:00:00 15.2 14 Este 21 Este 0 -- -- 67
2021-03-04 13:00:00 15.5 13 Este 19 Sudeste 0 -- -- 62
2021-03-04 12:00:00 15.3 9 Este 14 Este 0 -- -- 66
2021-03-04 11:00:00 15.5 4 Este 9 Este 0 -- -- 63
2021-03-04 10:00:00 14.4 2 Noroeste 7 Sudoeste 0 -- -- 62
2021-03-04 09:00:00 13.4 3 Este 16 Sur 0 -- -- 70
2021-03-04 08:00:00 10.9 4 Este 6 Norte 0 -- -- 75
2021-03-04 07:00:00 11.6 0 Calma 9 Sudeste 0 -- -- 71
2021-03-04 06:00:00 11.6 3 Oeste 9 Sudoeste 0 -- -- 73
2021-03-04 05:00:00 12.2 5 Oeste 12 Sudoeste 0 -- -- 73
2021-03-04 04:00:00 11.7 4 Sudeste 11 Sur 0 -- -- 74
2021-03-04 03:00:00 11.8 5 Sudeste 10 Sudeste 0 -- -- 75
2021-03-04 02:00:00 11.6 5 Sudeste 10 Sudeste 0 -- -- 81
2021-03-04 01:00:00 11.7 7 Sudeste 11 Sudeste 0 -- -- 81
2021-03-04 00:00:00 12.2 8 Sudeste 17 Sudeste 0 -- -- 78
2021-03-03 23:00:00 12.3 10 Sudeste 21 Sudeste 0 -- -- 77
2021-03-03 22:00:00 12.3 15 Este 24 Este 0 -- -- 78
2021-03-03 21:00:00 12.6 15 Sudeste 24 Este 0 -- -- 77
2021-03-03 20:00:00 12.3 15 Este 23 Este 0 -- -- 79
2021-03-03 19:00:00 12.9 17 Este 25 Este 0 -- -- 73
2021-03-03 18:00:00 13.6 17 Este 29 Este 0 -- -- 70
2021-03-03 17:00:00 14.4 19 Este 32 Este 0 -- -- 62
2021-03-03 16:00:00 14.7 21 Este 29 Este 0 -- -- 64
2021-03-03 15:00:00 15.4 17 Este 27 Este 0 -- -- 63
2021-03-03 14:00:00 15.1 17 Este 24 Este 0 -- -- 67
2021-03-03 13:00:00 15.5 14 Este 21 Sudeste 0 -- -- 70
2021-03-03 12:00:00 15.2 12 Este 16 Este 0 -- -- 66
2021-03-03 11:00:00 15.6 3 Norte 9 Este 0 -- -- 61
2021-03-03 10:00:00 14.6 8 Este 21 Sudeste 0 -- -- 64
2021-03-03 09:00:00 12.9 3 Noroeste 13 Oeste 0 -- -- 69
2021-03-03 08:00:00 12.4 8 Sudoeste 15 Sur 0 -- -- 67
2021-03-03 07:00:00 13.2 8 Sudeste 18 Sudeste 0 -- -- 63
2021-03-03 06:00:00 13.2 11 Sur 24 Sudoeste 0 -- -- 63
2021-03-03 05:00:00 13.4 8 Sudoeste 22 Sudoeste 0 -- -- 63
2021-03-03 04:00:00 13.6 12 Sudoeste 26 Sur 0 -- -- 61
2021-03-03 03:00:00 13.6 11 Sudoeste 18 Sudoeste 0 -- -- 61
2021-03-03 02:00:00 13.3 6 Sudoeste 12 Sudoeste 0 -- -- 62
2021-03-03 01:00:00 13.6 9 Sur 18 Sur 0 -- -- 59
2021-03-03 00:00:00 13.3 9 Sudoeste 18 Sur 0 -- -- 59
2021-03-02 23:00:00 13.5 0 Calma 24 Sudeste 0 -- -- 61
2021-03-02 22:00:00 15 13 Este 28 Sudeste 0 -- -- 55
2021-03-02 21:00:00 15.3 13 Sudeste 28 Sudeste 0 -- -- 54
2021-03-02 20:00:00 16 11 Sudeste 32 Este 0 -- -- 52
2021-03-02 19:00:00 16.5 14 Este 26 Este 0 -- -- 52
2021-03-02 18:00:00 17.1 11 Este 24 Sudeste 0 -- -- 54
2021-03-02 17:00:00 19.6 5 Norte 18 Sur 0 -- -- 44
2021-03-02 16:00:00 19.9 3 Nordeste 26 Este 0 -- -- 42
2021-03-02 15:00:00 19.1 7 Norte 37 Sur 0 -- -- 45
2021-03-02 14:00:00 19.3 20 Sur 44 Sur 0 -- -- 44
2021-03-02 13:00:00 18.9 22 Sur 42 Sur 0 -- -- 44
2021-03-02 12:00:00 18.4 8 Sudoeste 32 Sudeste 0 -- -- 46
2021-03-02 11:00:00 17.4 12 Sudoeste 35 Sudoeste 0 -- -- 49
2021-03-02 10:00:00 16.4 18 Sur 41 Sudoeste 0 -- -- 50
2021-03-02 09:00:00 15.2 21 Sur 45 Sur 0 -- -- 51
2021-03-02 08:00:00 14.3 22 Sur 45 Sur 0 -- -- 53
2021-03-02 07:00:00 13.5 19 Sur 41 Sur 0 -- -- 56
2021-03-02 06:00:00 14 22 Sur 40 Sudeste 0 -- -- 57
2021-03-02 05:00:00 14 17 Sur 33 Sudoeste 0 -- -- 57
2021-03-02 04:00:00 13.8 9 Sur 27 Sur 0 -- -- 58
2021-03-02 03:00:00 13.8 11 Sur 36 Sur 0 -- -- 58
2021-03-02 02:00:00 13.8 10 Sudeste 35 Este 0 -- -- 58
2021-03-02 01:00:00 13.4 14 Este 27 Este 0 -- -- 60
2021-03-02 00:00:00 13 13 Este 24 Sudeste 0 -- -- 63
2021-03-01 23:00:00 13.3 13 Este 26 Este 0 -- -- 63
2021-03-01 22:00:00 13.5 14 Este 31 Sudeste 0 -- -- 61
2021-03-01 21:00:00 13.8 13 Sudeste 30 Este 0 -- -- 59
2021-03-01 20:00:00 13.6 13 Este 30 Este 0 -- -- 62
2021-03-01 19:00:00 14 17 Este 35 Este 0 -- -- 60
2021-03-01 18:00:00 14.9 13 Sudeste 31 Este 0 -- -- 56
2021-03-01 17:00:00 15.4 9 Sudeste 29 Este 0 -- -- 55
2021-03-01 16:00:00 14.6 23 Este 36 Sudeste 0 -- -- 58
2021-03-01 15:00:00 14.6 20 Este 36 Este 0 -- -- 55
2021-03-01 14:00:00 15.7 14 Sudeste 32 Sur 0 -- -- 51
2021-03-01 13:00:00 15.7 13 Sur 36 Sudeste 0 -- -- 51
2021-03-01 12:00:00 16 17 Sudeste 42 Este 0 -- -- 51
2021-03-01 11:00:00 15.5 15 Sudeste 37 Este 0 -- -- 53
2021-03-01 10:00:00 13.9 16 Este 41 Este 0 -- -- 57
2021-03-01 09:00:00 12.4 25 Este 40 Este 0 -- -- 62
2021-03-01 08:00:00 11.9 13 Sudeste 35 Sudeste 0 -- -- 59
2021-03-01 07:00:00 11.7 13 Este 27 Sur 0 -- -- 61
2021-03-01 06:00:00 11.5 8 Sudeste 23 Sudeste 0 -- -- 62
2021-03-01 05:00:00 11.5 12 Sur 31 Sur 0 -- -- 62
2021-03-01 04:00:00 11 9 Sur 21 Sur 0 -- -- 63
2021-03-01 03:00:00 10.9 10 Sudeste 21 Este 0.2 -- -- 66
2021-03-01 02:00:00 10.7 13 Este 26 Este 0 -- -- 74
2021-03-01 01:00:00 10.1 9 Este 19 Este 0 -- -- 86
2021-03-01 00:00:00 10.4 11 Este 27 Sudeste 0.6 -- -- 86
2021-02-28 23:00:00 10.3 19 Sudeste 38 Este 3 -- -- 89
2021-02-28 22:00:00 10.4 22 Este 41 Este 1.4 -- -- 88
2021-02-28 21:00:00 10.4 30 Este 44 Este 0 -- -- 90
2021-02-28 20:00:00 10 23 Este 32 Este 0.4 -- -- 89
2021-02-28 19:00:00 9.7 14 Sudeste 32 Sudeste 0.2 -- -- 87
2021-02-28 18:00:00 9.8 27 Este 35 Este 0 -- -- 86
2021-02-28 17:00:00 9.9 21 Este 31 Este 0.2 -- -- 84
2021-02-28 16:00:00 10 22 Este 31 Este 0 -- -- 83
2021-02-28 15:00:00 10.8 19 Este 29 Este 0 -- -- 79
2021-02-28 14:00:00 10.8 21 Este 27 Este 0 -- -- 81
2021-02-28 13:00:00 11 17 Este 22 Este 0 -- -- 80
2021-02-28 12:00:00 10.7 6 Este 12 Este 0 -- -- 76
2021-02-28 11:00:00 10.4 7 Este 10 Nordeste 0 -- -- 77
2021-02-28 10:00:00 9.9 5 Este 8 Este 0 -- -- 77
2021-02-28 09:00:00 8.4 2 Sudeste 6 Sudoeste 0 -- -- 86
2021-02-28 08:00:00 7.6 5 Sudoeste 8 Sudoeste 0 -- -- 84
2021-02-28 07:00:00 7.7 6 Oeste 10 Oeste 0 -- -- 84
2021-02-28 06:00:00 7.4 4 Oeste 7 Oeste 0 -- -- 82
2021-02-28 05:00:00 8.2 0 Calma 6 Sudoeste 0 -- -- 81
2021-02-28 04:00:00 7.4 6 Sudoeste 11 Sudoeste 0 -- -- 83
2021-02-28 03:00:00 8.3 5 Oeste 12 Sudoeste 0 -- -- 82
2021-02-28 02:00:00 8.6 8 Sudoeste 16 Sudoeste 0 -- -- 83
2021-02-28 01:00:00 9.2 12 Oeste 19 Sudoeste 0 -- -- 82
2021-02-28 00:00:00 9.4 15 Sudoeste 22 Sudoeste 0 -- -- 79
2021-02-27 23:00:00 9.5 16 Sudoeste 21 Sudoeste 0 -- -- 78
2021-02-27 22:00:00 9.2 14 Sudoeste 19 Sudoeste 0 -- -- 78
2021-02-27 21:00:00 8.9 10 Sudoeste 14 Sudoeste 0 -- -- 80
2021-02-27 20:00:00 9.1 6 Oeste 15 Noroeste 0 -- -- 77
2021-02-27 19:00:00 9.4 10 Oeste 16 Oeste 0 -- -- 76
2021-02-27 18:00:00 9.9 11 Noroeste 18 Noroeste 0 -- -- 74
2021-02-27 17:00:00 11 6 Noroeste 12 Noroeste 0 -- -- 68
2021-02-27 16:00:00 10.1 4 Norte 10 Nordeste 0 -- -- 70
2021-02-27 15:00:00 10.8 5 Norte 11 Nordeste 0 -- -- 67
2021-02-27 14:00:00 9.6 8 Nordeste 21 Nordeste 0 -- -- 74
2021-02-27 13:00:00 9.9 17 Nordeste 27 Este 0 -- -- 75
2021-02-27 12:00:00 9.6 18 Nordeste 23 Este 0 -- -- 78
2021-02-27 11:00:00 9.2 17 Este 25 Nordeste 0 -- -- 81
2021-02-27 10:00:00 9.1 19 Nordeste 30 Este 0 -- -- 83
2021-02-27 09:00:00 9.3 23 Nordeste 33 Nordeste 0 -- -- 84
2021-02-27 08:00:00 9.8 23 Nordeste 29 Nordeste 0 -- -- 87
2021-02-27 07:00:00 10.2 22 Nordeste 29 Nordeste 0 -- -- 89
2021-02-27 06:00:00 10.7 21 Nordeste 27 Nordeste 0 -- -- 90
2021-02-27 05:00:00 11 19 Nordeste 23 Nordeste 0 -- -- 90
2021-02-27 04:00:00 11.4 15 Nordeste 20 Nordeste 0 -- -- 91
2021-02-27 03:00:00 11.1 0 Calma 5 Este 0 -- -- 88
2021-02-27 02:00:00 11.1 5 Este 14 Nordeste 0 -- -- 86
2021-02-27 01:00:00 11.3 9 Este 18 Este 0 -- -- 85
2021-02-27 00:00:00 11.3 16 Este 21 Este 0 -- -- 83
2021-02-26 23:00:00 11.3 11 Este 21 Este 0 -- -- 84
2021-02-26 22:00:00 11.2 17 Este 24 Este 0 -- -- 88
2021-02-26 21:00:00 11.3 17 Este 23 Nordeste 0 -- -- 88
2021-02-26 20:00:00 11.3 14 Este 20 Este 0 -- -- 90
2021-02-26 19:00:00 11.4 9 Este 13 Este 0 -- -- 86
2021-02-26 18:00:00 11.5 10 Este 15 Este 0 -- -- 85
2021-02-26 17:00:00 11.9 10 Este 13 Este 0 -- -- 83
2021-02-26 16:00:00 12.5 8 Este 12 Este 0 -- -- 81
2021-02-26 15:00:00 12.9 9 Este 11 Este 0 -- -- 80
2021-02-26 14:00:00 12.6 7 Nordeste 13 Este 0 -- -- 81
2021-02-26 13:00:00 13 8 Este 12 Este 0 -- -- 79
2021-02-26 12:00:00 12.5 7 Este 10 Sudeste 0 -- -- 81
2021-02-26 11:00:00 11.8 4 Sudeste 10 Este 0 -- -- 84
2021-02-26 10:00:00 11.3 4 Este 6 Nordeste 0 -- -- 86
2021-02-26 09:00:00 10.9 4 Nordeste 9 Este 0 -- -- 87
2021-02-26 08:00:00 10.7 6 Este 11 Este 0 -- -- 87
2021-02-26 07:00:00 10.9 8 Nordeste 11 Nordeste 0 -- -- 87
2021-02-26 06:00:00 11.1 10 Nordeste 12 Nordeste 0 -- -- 89
2021-02-26 05:00:00 11.1 9 Nordeste 14 Norte 0 -- -- 89
2021-02-26 04:00:00 11.1 4 Norte 12 Noroeste 0 -- -- 93
2021-02-26 03:00:00 11.6 6 Noroeste 11 Oeste 0 -- -- 95
2021-02-26 02:00:00 11.5 4 Oeste 8 Oeste 0 -- -- 94
2021-02-26 01:00:00 11.5 5 Oeste 7 Oeste 0 -- -- 94
2021-02-26 00:00:00 11.6 6 Noroeste 15 Oeste 0 -- -- 94
2021-02-25 23:00:00 11.8 6 Oeste 9 Oeste 0 -- -- 93
2021-02-25 22:00:00 11.6 0 Calma 3 Oeste 0 -- -- 92
2021-02-25 21:00:00 11.6 3 Noroeste 5 Oeste 0 -- -- 90
2021-02-25 20:00:00 11.7 2 Oeste 8 Oeste 0 -- -- 86
2021-02-25 19:00:00 11.9 4 Oeste 12 Oeste 0 -- -- 89
2021-02-25 18:00:00 12.1 9 Oeste 16 Oeste 0 -- -- 90
2021-02-25 17:00:00 12.3 13 Oeste 27 Oeste 0 -- -- 89
2021-02-25 16:00:00 12.5 22 Oeste 32 Oeste 0 -- -- 89
2021-02-25 15:00:00 12.5 23 Oeste 31 Oeste 0 -- -- 89
2021-02-25 14:00:00 12.8 19 Oeste 27 Oeste 0 -- -- 85
2021-02-25 13:00:00 13.2 17 Oeste 35 Oeste 0 -- -- 82
2021-02-25 12:00:00 12.7 20 Oeste 32 Sudoeste 0 -- -- 83
2021-02-25 11:00:00 12.7 15 Oeste 26 Oeste 0 -- -- 82
2021-02-25 10:00:00 13.5 10 Oeste 23 Oeste 0 -- -- 67
2021-02-25 09:00:00 14.4 14 Sur 35 Sur 0 -- -- 54
2021-02-25 08:00:00 15.8 6 Noroeste 42 Sur 0 -- -- 51
2021-02-25 07:00:00 16.5 24 Sur 42 Sur 0 -- -- 46
2021-02-25 06:00:00 17 26 Sur 46 Sur 0 -- -- 45
2021-02-25 05:00:00 15.8 13 Sur 33 Sur 0 -- -- 51
2021-02-25 04:00:00 15.3 5 Sudeste 33 Sur 0 -- -- 57
2021-02-25 03:00:00 16.3 24 Sur 42 Sur 0 -- -- 54
2021-02-25 02:00:00 16.9 22 Sur 41 Sur 0 -- -- 54
2021-02-25 01:00:00 16.6 17 Sur 31 Sudoeste 0 -- -- 57
2021-02-25 00:00:00 16.5 10 Sudeste 21 Sur 0 -- -- 57
2021-02-24 23:00:00 15.9 8 Sudeste 18 Sur 0 -- -- 57
2021-02-24 22:00:00 16.6 5 Sudeste 26 Sudeste 0 -- -- 54
2021-02-24 21:00:00 17.6 11 Sudeste 31 Sur 0 -- -- 50
2021-02-24 20:00:00 18.4 10 Sudeste 32 Sudeste 0 -- -- 49
2021-02-24 19:00:00 18.8 9 Sudeste 27 Sur 0 -- -- 48
2021-02-24 18:00:00 19.4 9 Sur 21 Sudeste 0 -- -- 47
2021-02-24 17:00:00 21.1 10 Sur 21 Sudeste 0 -- -- 42
2021-02-24 16:00:00 21.4 10 Sudeste 26 Este 0 -- -- 41
2021-02-24 15:00:00 21.5 7 Sudeste 24 Sur 0 -- -- 40
2021-02-24 14:00:00 19.9 3 Noroeste 11 Nordeste 0 -- -- 48
2021-02-24 13:00:00 19.6 4 Oeste 24 Sudeste 0 -- -- 43
2021-02-24 12:00:00 18.9 9 Sudeste 28 Sudeste 0 -- -- 44
2021-02-24 11:00:00 17.4 10 Sur 27 Sudoeste 0 -- -- 48
2021-02-24 10:00:00 16.5 10 Sudeste 37 Sudoeste 0 -- -- 49
2021-02-24 09:00:00 14.5 11 Este 26 Sudeste 0 -- -- 57
2021-02-24 08:00:00 13.6 12 Este 26 Este 0 -- -- 59
2021-02-24 07:00:00 13.6 6 Sudeste 30 Sudeste 0 -- -- 58
2021-02-24 06:00:00 13.5 8 Sur 18 Sur 0 -- -- 59
2021-02-24 05:00:00 12.9 5 Sudeste 14 Este 0 -- -- 63
2021-02-24 04:00:00 12.6 7 Este 13 Este 0 -- -- 64
2021-02-24 03:00:00 12.6 5 Sudeste 9 Este 0 -- -- 65
2021-02-24 02:00:00 13.1 2 Sudoeste 16 Este 0 -- -- 62
2021-02-24 01:00:00 13.9 9 Este 22 Sur 0 -- -- 60
2021-02-24 00:00:00 14.4 12 Sur 38 Sur 0 -- -- 56
2021-02-23 23:00:00 14.5 14 Sudeste 26 Sudeste 0 -- -- 55
2021-02-23 22:00:00 14.2 11 Sudeste 23 Este 0 -- -- 57
2021-02-23 21:00:00 14.6 15 Este 26 Este 0 -- -- 57
2021-02-23 20:00:00 15.3 10 Este 22 Este 0 -- -- 52
2021-02-23 19:00:00 15.8 8 Este 19 Este 0 -- -- 51
2021-02-23 18:00:00 17.1 6 Sudeste 16 Sudeste 0 -- -- 48
2021-02-23 17:00:00 19.6 5 Sudeste 26 Sudoeste 0 -- -- 42
2021-02-23 16:00:00 19.8 9 Sur 26 Sur 0 -- -- 39
2021-02-23 15:00:00 19.5 6 Noroeste 22 Sudoeste 0 -- -- 39
2021-02-23 14:00:00 18.4 6 Sur 29 Sudeste 0 -- -- 42
2021-02-23 13:00:00 18.3 10 Sudeste 42 Sudeste 0 -- -- 43
2021-02-23 12:00:00 17.1 9 Sudeste 27 Este 0 -- -- 44
2021-02-23 11:00:00 15.6 10 Sudeste 30 Este 0 -- -- 50
2021-02-23 10:00:00 13.8 17 Este 36 Sudeste 0 -- -- 55
2021-02-23 09:00:00 12.2 18 Este 36 Este 0 -- -- 59
2021-02-23 08:00:00 10.5 18 Este 33 Este 0 -- -- 69
2021-02-23 07:00:00 10.3 16 Este 30 Sudeste 0 -- -- 69
2021-02-23 06:00:00 9.7 15 Este 24 Sudeste 0 -- -- 74
2021-02-23 05:00:00 8.9 11 Este 22 Sudeste 0 -- -- 81
2021-02-23 04:00:00 8.6 11 Sudeste 26 Sudeste 0 -- -- 83
2021-02-23 03:00:00 9.5 14 Sudeste 21 Sudeste 0 -- -- 74
2021-02-23 02:00:00 8.8 11 Sudeste 18 Sudeste 0 -- -- 79
2021-02-23 01:00:00 9.1 9 Sudeste 20 Este 0 -- -- 76
2021-02-23 00:00:00 8.9 10 Sudeste 22 Sudeste 0 -- -- 80
2021-02-22 23:00:00 10 11 Sudeste 22 Este 0 -- -- 73
2021-02-22 22:00:00 9.9 12 Sudeste 21 Sudeste 0 -- -- 79
2021-02-22 21:00:00 9.6 6 Sudeste 13 Sudeste 0 -- -- 82
2021-02-22 20:00:00 10 4 Sur 15 Oeste 0 -- -- 83
2021-02-22 19:00:00 10.3 10 Oeste 20 Oeste 0 -- -- 82
2021-02-22 18:00:00 10.9 17 Oeste 31 Oeste 0 -- -- 78
2021-02-22 17:00:00 11.1 25 Oeste 32 Oeste 0 -- -- 77
2021-02-22 16:00:00 10.8 22 Oeste 36 Oeste 0 -- -- 82
2021-02-22 15:00:00 10.1 26 Oeste 47 Oeste 0 -- -- 84
2021-02-22 14:00:00 10.2 34 Oeste 52 Oeste 0 -- -- 84
2021-02-22 13:00:00 9.7 30 Oeste 53 Oeste 0.6 -- -- 89
2021-02-22 12:00:00 9.8 35 Oeste 62 Oeste 2 -- -- 88
2021-02-22 11:00:00 9.4 27 Oeste 54 Oeste 1.4 -- -- 92
2021-02-22 10:00:00 9.1 39 Oeste 60 Oeste 1.2 -- -- 92
2021-02-22 09:00:00 9.4 38 Oeste 66 Oeste 2 -- -- 91
2021-02-22 08:00:00 9 49 Oeste 64 Oeste 0.8 -- -- 89
2021-02-22 07:00:00 8.8 45 Oeste 71 Oeste 0.2 -- -- 92
2021-02-22 06:00:00 8.7 54 Oeste 75 Oeste 2.8 -- -- 93
2021-02-22 05:00:00 8.4 36 Oeste 68 Oeste 1.2 -- -- 93
2021-02-22 04:00:00 8.4 49 Oeste 70 Oeste 0.6 -- -- 92
2021-02-22 03:00:00 8.2 46 Oeste 68 Oeste 1.8 -- -- 94
2021-02-22 02:00:00 8.1 36 Oeste 64 Oeste 2 -- -- 94
2021-02-22 01:00:00 8 52 Oeste 75 Oeste 3.4 -- -- 93
2021-02-22 00:00:00 8.1 36 Oeste 69 Oeste 3.2 -- -- 93
2021-02-21 23:00:00 8.3 51 Oeste 73 Oeste 3.4 -- -- 95
2021-02-21 22:00:00 8.5 46 Oeste 60 Oeste 4 -- -- 95
2021-02-21 21:00:00 8.6 34 Oeste 59 Oeste 2.4 -- -- 95
2021-02-21 20:00:00 9.6 37 Oeste 55 Oeste 2 -- -- 94
2021-02-21 19:00:00 9.7 39 Oeste 55 Oeste 1.6 -- -- 93
2021-02-21 18:00:00 10.5 44 Oeste 57 Oeste 0 -- -- 91
2021-02-21 17:00:00 14.7 12 Noroeste 42 Oeste 0 -- -- 67
2021-02-21 16:00:00 16.5 8 Sur 31 Sur 0 -- -- 47
2021-02-21 15:00:00 17.3 6 Sur 27 Sudeste 0 -- -- 44
2021-02-21 14:00:00 18.2 13 Sudeste 37 Este 0 -- -- 40
2021-02-21 13:00:00 17.5 23 Este 39 Este 0 -- -- 40
2021-02-21 12:00:00 18.7 10 Este 34 Este 0 -- -- 38
2021-02-21 11:00:00 16.4 15 Sudeste 44 Sudeste 0 -- -- 39
2021-02-21 10:00:00 16 18 Sudeste 39 Sur 0 -- -- 39
2021-02-21 09:00:00 15.3 14 Sudeste 32 Sudeste 0 -- -- 41
2021-02-21 08:00:00 14.7 13 Este 30 Sudeste 0 -- -- 42
2021-02-21 07:00:00 14.7 18 Sudeste 36 Este 0 -- -- 43
2021-02-21 06:00:00 14.9 23 Sudeste 44 Este 0 -- -- 43
2021-02-21 05:00:00 15.1 24 Este 36 Sudeste 0 -- -- 44
2021-02-21 04:00:00 15.4 19 Este 33 Sudeste 0 -- -- 45
2021-02-21 03:00:00 16.4 12 Sudeste 30 Sudeste 0 -- -- 41
2021-02-21 02:00:00 15.7 11 Este 21 Este 0 -- -- 48
2021-02-21 01:00:00 15.4 4 Este 16 Este 0 -- -- 47
2021-02-21 00:00:00 16.9 12 Este 21 Este 0 -- -- 44
2021-02-20 23:00:00 17.7 8 Este 17 Este 0 -- -- 39
2021-02-20 22:00:00 17.2 6 Este 14 Este 0 -- -- 41
2021-02-20 21:00:00 18.1 6 Este 25 Sudeste 0 -- -- 40
2021-02-20 20:00:00 18.6 8 Sudeste 22 Sudeste 0 -- -- 36
2021-02-20 19:00:00 19.8 8 Sur 26 Sur 0 -- -- 33
2021-02-20 18:00:00 20.7 8 Sur 30 Sur 0 -- -- 30
2021-02-20 17:00:00 21.1 10 Sudeste 32 Sudeste 0 -- -- 28
2021-02-20 16:00:00 21 13 Sudeste 42 Sur 0 -- -- 30
2021-02-20 15:00:00 21.7 12 Sur 37 Sur 0 -- -- 30
2021-02-20 14:00:00 21.9 12 Sudeste 30 Sur 0 -- -- 32
2021-02-20 13:00:00 19.8 8 Sudeste 32 Sur 0 -- -- 34
2021-02-20 12:00:00 19 13 Sur 35 Sudeste 0 -- -- 34
2021-02-20 11:00:00 18.2 10 Sur 39 Sudoeste 0 -- -- 33
2021-02-20 10:00:00 18.6 18 Sudeste 54 Sudeste 0 -- -- 30
2021-02-20 09:00:00 18.8 14 Sur 52 Sudeste 0 -- -- 29
2021-02-20 08:00:00 18.6 12 Sudeste 47 Este 0 -- -- 28
2021-02-20 07:00:00 18 12 Sudeste 31 Este 0 -- -- 29
2021-02-20 06:00:00 16.7 9 Sudeste 25 Este 0 -- -- 35
2021-02-20 05:00:00 17 11 Sudeste 24 Este 0 -- -- 33
2021-02-20 04:00:00 16.4 7 Sudeste 16 Este 0 -- -- 35
2021-02-20 03:00:00 16.8 10 Sudeste 24 Este 0 -- -- 37
2021-02-20 02:00:00 17.4 10 Sudeste 21 Sudeste 0 -- -- 35
2021-02-20 01:00:00 18.2 10 Sudeste 20 Sur 0 -- -- 32
2021-02-20 00:00:00 18.6 7 Sur 28 Sur 0 -- -- 33
2021-02-19 23:00:00 19.1 3 Sudeste 21 Sudoeste 0 -- -- 31
2021-02-19 22:00:00 18.2 9 Este 19 Sudoeste 0 -- -- 37
2021-02-19 21:00:00 19 6 Sudeste 18 Este 0 -- -- 36
2021-02-19 20:00:00 18 6 Este 11 Sur 0 -- -- 35
2021-02-19 19:00:00 19.8 8 Sudoeste 24 Sudoeste 0 -- -- 31
2021-02-19 18:00:00 20 12 Sudoeste 39 Sudoeste 0 -- -- 30
2021-02-19 17:00:00 20.7 12 Sudoeste 48 Sur 0 -- -- 29
2021-02-19 16:00:00 20.3 25 Sur 49 Sudoeste 0 -- -- 27
2021-02-19 15:00:00 20.2 29 Sudoeste 61 Sur 0 -- -- 34
2021-02-19 14:00:00 19.3 18 Sudoeste 51 Sur 0 -- -- 40
2021-02-19 13:00:00 18.9 25 Sudoeste 44 Sur 0 -- -- 39
2021-02-19 12:00:00 19.3 5 Norte 38 Sudoeste 0 -- -- 40
2021-02-19 11:00:00 18.1 11 Sudoeste 46 Sudoeste 0 -- -- 44
2021-02-19 10:00:00 16.9 6 Sur 39 Sur 0 -- -- 48
2021-02-19 09:00:00 16 23 Sur 39 Sudoeste 0 -- -- 48
2021-02-19 08:00:00 14.9 7 Sur 30 Sur 0 -- -- 54
2021-02-19 07:00:00 15 9 Sur 31 Sudoeste 0 -- -- 56
2021-02-19 06:00:00 15 11 Sur 28 Sudoeste 0 -- -- 57
2021-02-19 05:00:00 14.6 6 Sur 19 Sur 0 -- -- 59
2021-02-19 04:00:00 14.2 7 Sur 19 Sudoeste 0 -- -- 59
2021-02-19 03:00:00 13.4 7 Sur 22 Sur 0 -- -- 62
2021-02-19 02:00:00 11.7 10 Sudeste 14 Sudeste 0 -- -- 72
2021-02-19 01:00:00 10.9 12 Sudeste 22 Sudeste 0 -- -- 76
2021-02-19 00:00:00 10.6 15 Sudeste 26 Sudeste 0 -- -- 78
2021-02-18 23:00:00 10.8 19 Sudeste 29 Sudeste 0 -- -- 76
2021-02-18 22:00:00 10.3 9 Sudeste 18 Sudeste 0 -- -- 80
2021-02-18 21:00:00 10.3 9 Sudeste 17 Sudeste 0 -- -- 71
2021-02-18 20:00:00 10.4 6 Sudeste 15 Este 0 -- -- 74
2021-02-18 19:00:00 10.3 4 Sudeste 12 Oeste 0 -- -- 83
2021-02-18 18:00:00 11 12 Oeste 22 Oeste 0 -- -- 79
2021-02-18 17:00:00 11.5 13 Oeste 41 Oeste 0 -- -- 74
2021-02-18 16:00:00 11.3 29 Oeste 39 Oeste 0 -- -- 82
2021-02-18 15:00:00 11.4 30 Oeste 40 Oeste 0 -- -- 81
2021-02-18 14:00:00 11.3 37 Oeste 47 Oeste 0 -- -- 82
2021-02-18 13:00:00 12.2 38 Oeste 43 Oeste 0 -- -- 81
2021-02-18 12:00:00 12.5 23 Oeste 48 Oeste 0 -- -- 81
2021-02-18 11:00:00 14 22 Oeste 42 Oeste 0 -- -- 72
2021-02-18 10:00:00 16.6 16 Sur 35 Sudoeste 0 -- -- 44
2021-02-18 09:00:00 16.5 14 Sur 53 Sudoeste 0 -- -- 44
2021-02-18 08:00:00 16.4 18 Sudoeste 47 Sur 0 -- -- 45
2021-02-18 07:00:00 16.4 9 Sur 42 Sudeste 0 -- -- 44
2021-02-18 06:00:00 16.6 10 Sudeste 39 Sudoeste 0 -- -- 44
2021-02-18 05:00:00 16.9 6 Noroeste 33 Sur 0 -- -- 44
2021-02-18 04:00:00 17.4 14 Sur 45 Sudoeste 0 -- -- 45
2021-02-18 03:00:00 17.3 18 Sudoeste 45 Sudoeste 0 -- -- 46
2021-02-18 02:00:00 18 14 Sur 36 Sudoeste 0 -- -- 45
2021-02-18 01:00:00 17.5 3 Norte 32 Sudoeste 0 -- -- 47
2021-02-18 00:00:00 17.8 12 Sur 29 Sudoeste 0 -- -- 47
2021-02-17 23:00:00 17.8 15 Sur 30 Sudoeste 0 -- -- 49
2021-02-17 22:00:00 17.2 8 Sudeste 23 Este 0 -- -- 53
2021-02-17 21:00:00 17.1 10 Sur 34 Sur 0 -- -- 52
2021-02-17 20:00:00 17.9 19 Sur 33 Sudoeste 0 -- -- 48
2021-02-17 19:00:00 17.7 11 Sur 31 Sudoeste 0 -- -- 48
2021-02-17 18:00:00 17.4 5 Sudeste 18 Sur 0 -- -- 49
2021-02-17 17:00:00 19.1 9 Sur 34 Sudoeste 0 -- -- 43
2021-02-17 16:00:00 19.8 12 Sudoeste 35 Sur 0 -- -- 42
2021-02-17 15:00:00 20.2 9 Sudoeste 36 Oeste 0 -- -- 40
2021-02-17 14:00:00 20 10 Sudoeste 33 Sudoeste 0 -- -- 43
2021-02-17 13:00:00 18.6 9 Sudoeste 24 Sudoeste 0 -- -- 47
2021-02-17 12:00:00 17.7 11 Sudoeste 35 Sudoeste 0 -- -- 48
2021-02-17 11:00:00 16 19 Sudoeste 37 Sudoeste 0 -- -- 52
2021-02-17 10:00:00 15.3 19 Sudoeste 31 Sudoeste 0 -- -- 53
2021-02-17 09:00:00 13.8 5 Sur 23 Sur 0 -- -- 59
2021-02-17 08:00:00 13.6 16 Sur 34 Sudoeste 0 -- -- 59
2021-02-17 07:00:00 12.3 7 Sur 15 Sur 0 -- -- 63
2021-02-17 06:00:00 11.6 9 Sur 15 Sur 0 -- -- 67
2021-02-17 05:00:00 11.2 8 Sudeste 13 Sudeste 0 -- -- 72
2021-02-17 04:00:00 11.7 9 Sudeste 19 Sudeste 0 -- -- 69
2021-02-17 03:00:00 11.8 12 Sudeste 21 Sudeste 0 -- -- 67
2021-02-17 02:00:00 12.2 14 Sudeste 28 Este 0 -- -- 66
2021-02-17 01:00:00 12 11 Sudeste 21 Sudeste 0 -- -- 68
2021-02-17 00:00:00 12.1 10 Sudeste 20 Sudeste 0 -- -- 69
2021-02-16 23:00:00 12.2 11 Sudeste 20 Sudeste 0 -- -- 69
2021-02-16 22:00:00 12 13 Sudeste 22 Sudeste 0 -- -- 70
2021-02-16 21:00:00 11.4 16 Sudeste 24 Sudeste 0.2 -- -- 76
2021-02-16 20:00:00 12.3 5 Sudeste 13 Oeste 0 -- -- 66
2021-02-16 19:00:00 12.8 12 Oeste 22 Oeste 0 -- -- 63
2021-02-16 18:00:00 13.3 13 Oeste 26 Oeste 0 -- -- 63
2021-02-16 17:00:00 13.3 17 Oeste 30 Oeste 0 -- -- 62
2021-02-16 16:00:00 12.5 12 Sudoeste 31 Oeste 0 -- -- 71
2021-02-16 15:00:00 12.1 21 Oeste 41 Oeste 0 -- -- 77
2021-02-16 14:00:00 12.4 34 Oeste 67 Oeste 0 -- -- 79
2021-02-16 13:00:00 12.9 53 Oeste 93 Oeste 0 -- -- 77
2021-02-16 12:00:00 17.6 31 Sur 68 Sur 0 -- -- 42
2021-02-16 11:00:00 16 14 Sudoeste 54 Sudoeste 0 -- -- 44
2021-02-16 10:00:00 16.1 25 Sur 71 Sudoeste 0 -- -- 43
2021-02-16 09:00:00 15.4 11 Sur 49 Sudoeste 0 -- -- 44
2021-02-16 08:00:00 16.8 28 Sudoeste 51 Sudoeste 0 -- -- 39
2021-02-16 07:00:00 16.1 23 Sur 48 Oeste 0 -- -- 40
2021-02-16 06:00:00 14.8 8 Nordeste 48 Oeste 0 -- -- 47
2021-02-16 05:00:00 15.1 9 Este 68 Sudoeste 0 -- -- 46
2021-02-16 04:00:00 16.1 34 Sur 83 Sudoeste 0 -- -- 44
2021-02-16 03:00:00 16.4 44 Sur 80 Sur 0 -- -- 43
2021-02-16 02:00:00 16.8 48 Sur 74 Sur 0 -- -- 42
2021-02-16 01:00:00 16.9 45 Sur 83 Sur 0 -- -- 42
2021-02-16 00:00:00 15.7 24 Sur 45 Sudoeste 0 -- -- 46
2021-02-15 23:00:00 14 6 Sudeste 27 Este 0 -- -- 51
2021-02-15 22:00:00 13.8 17 Este 32 Este 0 -- -- 58
2021-02-15 21:00:00 13.3 11 Este 26 Este 0 -- -- 58
2021-02-15 20:00:00 13.6 10 Este 19 Sudeste 0 -- -- 55
2021-02-15 19:00:00 14.8 9 Sudeste 25 Este 0 -- -- 51
2021-02-15 18:00:00 16.4 17 Este 48 Sur 0 -- -- 51
2021-02-15 17:00:00 18.7 36 Sur 56 Sur 0 -- -- 37
2021-02-15 16:00:00 19.9 39 Sur 61 Sur 0 -- -- 34
2021-02-15 15:00:00 18.8 44 Sur 64 Sur 0 -- -- 38
2021-02-15 14:00:00 18.3 41 Sur 67 Sur 0 -- -- 42
2021-02-15 13:00:00 17.8 42 Sur 72 Sur 0 -- -- 39
2021-02-15 12:00:00 17.2 45 Sur 72 Sur 0 -- -- 43
2021-02-15 11:00:00 16.7 46 Sur 67 Sudoeste 0 -- -- 43
2021-02-15 10:00:00 15.6 49 Sur 73 Sur 0 -- -- 45
2021-02-15 09:00:00 15.2 49 Sur 73 Sur 0 -- -- 48
2021-02-15 08:00:00 14.6 55 Sur 76 Sudoeste 0 -- -- 51
2021-02-15 07:00:00 14.4 50 Sur 75 Sur 0 -- -- 52
2021-02-15 06:00:00 14.2 50 Sur 73 Sur 0 -- -- 53
2021-02-15 05:00:00 14.4 53 Sur 74 Sur 0 -- -- 54
2021-02-15 04:00:00 15 55 Sur 79 Sur 0 -- -- 52
2021-02-15 03:00:00 15.5 54 Sur 80 Sudoeste 0 -- -- 51
2021-02-15 02:00:00 15.7 56 Sur 81 Sur 0 -- -- 51
2021-02-15 01:00:00 16.2 50 Sur 83 Sur 0 -- -- 49
2021-02-15 00:00:00 16.6 49 Sur 74 Sudoeste 0 -- -- 48
2021-02-14 23:00:00 16.5 41 Sur 71 Sudoeste 0 -- -- 49
2021-02-14 22:00:00 16.7 35 Sur 68 Sudoeste 0 -- -- 48
2021-02-14 21:00:00 17 42 Sur 67 Sur 0 -- -- 48
2021-02-14 20:00:00 16.9 42 Sur 66 Sur 0 -- -- 50
2021-02-14 19:00:00 16.9 43 Sur 66 Sur 0 -- -- 51
2021-02-14 18:00:00 17.3 34 Sur 63 Sur 0 -- -- 50
2021-02-14 17:00:00 18.1 40 Sur 64 Sur 0 -- -- 47
2021-02-14 16:00:00 18.4 41 Sudoeste 64 Sudoeste 0 -- -- 45
2021-02-14 15:00:00 18.3 35 Sur 58 Sur 0 -- -- 45
2021-02-14 14:00:00 18.2 27 Sur 56 Sur 0 -- -- 46
2021-02-14 13:00:00 18.5 24 Sur 55 Sur 0.2 -- -- 46
2021-02-14 12:00:00 17.5 25 Sur 51 Sur 0 -- -- 51
2021-02-14 11:00:00 15.4 11 Sudeste 29 Sudeste 0 -- -- 61
2021-02-14 10:00:00 14.4 12 Sudeste 23 Este 0 -- -- 64
2021-02-14 09:00:00 11.3 12 Sudeste 17 Sudeste 0 -- -- 76
2021-02-14 08:00:00 10.9 8 Sudeste 14 Sudeste 0 -- -- 72
2021-02-14 07:00:00 11.8 10 Sudeste 18 Sudeste 0 -- -- 68
2021-02-14 06:00:00 12.7 11 Sudeste 21 Sudeste 0 -- -- 65
2021-02-14 05:00:00 10.5 11 Sudeste 17 Sudeste 0 -- -- 73
2021-02-14 04:00:00 11.1 8 Sudeste 17 Sudeste 0 -- -- 69
2021-02-14 03:00:00 11.5 10 Sudeste 20 Sudeste 0 -- -- 67
2021-02-14 02:00:00 10.7 13 Sudeste 19 Sudeste 0 -- -- 73
2021-02-14 01:00:00 10.3 10 Sudeste 19 Sudeste 0 -- -- 79
2021-02-14 00:00:00 10.1 13 Sudeste 21 Este 0 -- -- 82
2021-02-13 23:00:00 10.8 13 Sudeste 20 Este 0 -- -- 80
2021-02-13 22:00:00 10.7 10 Sudeste 17 Sudeste 0 -- -- 81
2021-02-13 21:00:00 11.1 10 Sudeste 21 Sudeste 0 -- -- 76
2021-02-13 20:00:00 10.6 11 Sudeste 19 Este 0 -- -- 80
2021-02-13 19:00:00 10.8 13 Sudeste 21 Sudeste 0 -- -- 82
2021-02-13 18:00:00 10.9 10 Sudeste 14 Sudeste 0 -- -- 80
2021-02-13 17:00:00 13 10 Este 14 Este 0 -- -- 79
2021-02-13 16:00:00 12.6 3 Norte 8 Noroeste 0 -- -- 80
2021-02-13 15:00:00 12.5 2 Nordeste 14 Noroeste 0 -- -- 76
2021-02-13 14:00:00 13 2 Sur 13 Oeste 0 -- -- 75
2021-02-13 13:00:00 12 12 Oeste 14 Oeste 0 -- -- 79
2021-02-13 08:00:00 10.3 0 Calma 4 Sudeste 0 -- -- 78
2021-02-13 07:00:00 9.7 0 Calma 5 Sudoeste 0 -- -- 83
2021-02-13 06:00:00 9.6 2 Sudeste 5 Sudoeste 0 -- -- 85
2021-02-13 05:00:00 9.6 3 Sudoeste 7 Sur 0 -- -- 87
2021-02-13 04:00:00 10.2 5 Oeste 15 Oeste 0 -- -- 85
2021-02-13 03:00:00 10.5 9 Oeste 15 Sudoeste 0 -- -- 87
2021-02-13 02:00:00 10.7 12 Oeste 26 Oeste 0 -- -- 88
2021-02-13 01:00:00 11.2 15 Oeste 27 Oeste 0 -- -- 87
2021-02-13 00:00:00 11.2 16 Oeste 35 Oeste 0 -- -- 90
2021-02-12 23:00:00 11.5 29 Oeste 40 Oeste 0 -- -- 91
2021-02-12 22:00:00 11.6 26 Oeste 46 Oeste 0 -- -- 92
2021-02-12 21:00:00 11.9 35 Oeste 49 Oeste 0 -- -- 88
2021-02-12 20:00:00 11.8 36 Oeste 51 Oeste 0 -- -- 92
2021-02-12 19:00:00 11.8 45 Oeste 70 Oeste 0 -- -- 92
2021-02-12 18:00:00 11.9 55 Oeste 71 Oeste 0 -- -- 91
2021-02-12 17:00:00 11.8 60 Oeste 76 Oeste 0 -- -- 93
2021-02-12 16:00:00 11.8 63 Oeste 78 Oeste 0.2 -- -- 95
2021-02-12 15:00:00 11.6 60 Oeste 86 Oeste 0.6 -- -- 96
2021-02-12 14:00:00 11.5 69 Oeste 101 Oeste 1.6 -- -- 96
2021-02-12 13:00:00 11.2 58 Oeste 86 Oeste 2.4 -- -- 95
2021-02-12 12:00:00 11.7 62 Oeste 96 Oeste 0.8 -- -- 95
2021-02-12 11:00:00 11.7 66 Oeste 91 Oeste 1.8 -- -- 92
2021-02-12 10:00:00 11.7 44 Oeste 79 Oeste 1.6 -- -- 93
2021-02-12 09:00:00 12.4 21 Oeste 35 Oeste 0 -- -- 88
2021-02-12 08:00:00 11.9 20 Oeste 34 Oeste 0.2 -- -- 94
2021-02-12 07:00:00 11.7 22 Oeste 45 Oeste 0.2 -- -- 95
2021-02-12 06:00:00 11.9 43 Oeste 80 Oeste 2 -- -- 94
2021-02-12 05:00:00 12.6 33 Oeste 58 Oeste 0.4 -- -- 87
2021-02-12 04:00:00 17.3 9 Sudoeste 29 Sur 0 -- -- 58
2021-02-12 03:00:00 16 11 Sur 24 Sudoeste 0 -- -- 65
2021-02-12 02:00:00 15 6 Este 15 Sudeste 0 -- -- 67
2021-02-12 01:00:00 14.9 12 Sudeste 17 Sudeste 0 -- -- 66
2021-02-12 00:00:00 14 10 Sudeste 17 Sudeste 0 -- -- 72
2021-02-11 23:00:00 13.4 11 Sudeste 18 Sudeste 0 -- -- 76
2021-02-11 22:00:00 13.4 11 Sudeste 20 Este 0 -- -- 76
2021-02-11 21:00:00 13 14 Sudeste 20 Sudeste 0 -- -- 78
2021-02-11 20:00:00 12.1 15 Sudeste 23 Sudeste 0 -- -- 86
2021-02-11 19:00:00 13 16 Sudeste 23 Sudeste 0 -- -- 78
2021-02-11 18:00:00 14.4 4 Este 14 Oeste 0 -- -- 73
2021-02-11 17:00:00 17.2 4 Noroeste 19 Sur 0 -- -- 63
2021-02-11 16:00:00 18.3 10 Sur 25 Sur 0 -- -- 54
2021-02-11 15:00:00 18.5 20 Sur 38 Sur 0 -- -- 52
2021-02-11 14:00:00 18.7 20 Sur 28 Sudoeste 0 -- -- 51
2021-02-11 13:00:00 18.6 0 Calma -- -- 0.2 -- -- 53
2021-02-11 12:00:00 -- -- -- -- -- -- -- -- --
2021-02-11 11:00:00 -- -- -- -- -- -- -- -- --
2021-02-11 10:00:00 -- 3 Sudeste 14 Sudeste 0 -- -- 60
2021-02-11 09:00:00 -0.1 5 Sudeste 9 Norte 0 -- -- 63
2021-02-11 08:00:00 -0.1 3 Sur 10 Sur 0 -- -- 59
2021-02-11 07:00:00 -0.1 0 Calma 6 Este 0 -- -- 67
2021-02-11 06:00:00 -- 4 Sudeste 18 Sudeste 0 -- -- 74
2021-02-11 05:00:00 33.9 10 Sudeste 16 Este 0 -- -- 73
2021-02-11 04:00:00 -- 8 Sudeste 15 Sudeste 0 -- -- 73
2021-02-11 03:00:00 -- 7 Sur 9 Sudeste 0 -- -- 72
2021-02-11 02:00:00 -5.6 4 Sur 6 Sudoeste 0 -- -- 77
2021-02-11 01:00:00 -0.1 4 Sudoeste 18 Sudoeste 0 -- -- 78
2021-02-11 00:00:00 -- 8 Sudoeste 19 Oeste 0 -- -- 81
2021-02-10 23:00:00 -- 8 Oeste 22 Oeste 0 -- -- 82
2021-02-10 22:00:00 -- 10 Oeste 24 Oeste 0 -- -- 84
2021-02-10 21:00:00 -- 14 Oeste 48 Oeste 0 -- -- 84
2021-02-10 20:00:00 -- 37 Oeste 58 Oeste 0 -- -- 81
2021-02-10 19:00:00 -0.1 46 Oeste 67 Oeste 0 -- -- 85
2021-02-10 18:00:00 -0.1 44 Oeste 75 Oeste 0 -- -- 83
2021-02-10 17:00:00 -0.1 50 Oeste 83 Oeste 0 -- -- 82
2021-02-10 16:00:00 -- 53 Oeste 90 Oeste 0 -- -- 81
2021-02-10 15:00:00 -0.1 61 Oeste 100 Oeste 0.2 -- -- 82
2021-02-10 14:00:00 -0.1 72 Oeste 100 Oeste 0 -- -- 76
2021-02-10 13:00:00 -0.1 73 Oeste 99 Oeste 0.2 -- -- 79
2021-02-10 12:00:00 -- 40 Oeste 91 Oeste 0.4 -- -- 82
2021-02-10 11:00:00 -- 55 Oeste 85 Oeste 0 -- -- 75
2021-02-10 10:00:00 10.8 27 Oeste 45 Oeste 0 -- -- 72
2021-02-10 09:00:00 -0.1 26 Oeste 48 Sudoeste 0 -- -- 75
2021-02-10 08:00:00 -0.1 24 Oeste 57 Oeste 0 -- -- 77
2021-02-10 07:00:00 -0.1 16 Oeste 24 Oeste 0 -- -- 76
2021-02-10 06:00:00 -- 5 Sudoeste 8 Oeste 0 -- -- 80
2021-02-10 05:00:00 -- 2 Oeste 8 Oeste 0 -- -- 79
2021-02-10 04:00:00 -- 3 Oeste 19 Noroeste 0 -- -- 83
2021-02-10 03:00:00 -- 19 Noroeste 34 Sur 0 -- -- 81
2021-02-10 02:00:00 -- 18 Sudoeste 38 Sudoeste 0 -- -- 56
2021-02-10 01:00:00 -- 17 Sudoeste 31 Sudoeste 0 -- -- 59
2021-02-10 00:00:00 -11.2 17 Sudoeste 46 Sur 0 -- -- 59
2021-02-09 23:00:00 -0.1 13 Sudoeste 27 Oeste 0 -- -- 58
2021-02-09 22:00:00 -0.1 8 Sur 32 Sudoeste 0.2 -- -- 57
2021-02-09 21:00:00 -0.1 11 Sudoeste 39 Sudoeste 0 -- -- 58
2021-02-09 20:00:00 -0.1 12 Sudoeste 33 Oeste 0 -- -- 59
2021-02-09 19:00:00 -0.1 10 Sudoeste 50 Oeste 0 -- -- 75
2021-02-09 18:00:00 -0.1 24 Oeste 47 Sudoeste 0 -- -- 67
2021-02-09 17:00:00 -- 19 Sudoeste 38 Sudoeste 0 -- -- 54
2021-02-09 16:00:00 34.8 5 Sur 16 Sudeste 0 -- -- 83
2021-02-09 15:00:00 -0.1 9 Sudoeste 46 Oeste 0.2 -- -- 88
2021-02-09 14:00:00 -0.1 33 Oeste 63 Oeste 1.2 -- -- 90
2021-02-09 13:00:00 -0.1 10 Sudoeste 39 Sur 0 -- -- 65
2021-02-09 12:00:00 -- 13 Sur 39 Sur 0 -- -- 56
2021-02-09 11:00:00 -- 11 Sur 46 Sur 0 -- -- 54
2021-02-09 10:00:00 -0.1 16 Sur 49 Sudoeste 0 -- -- 57
2021-02-09 09:00:00 -0.1 14 Sur 45 Sur 0 -- -- 57
2021-02-09 08:00:00 -0.1 8 Este 40 Sur 0 -- -- 62
2021-02-09 07:00:00 -0.1 26 Sudoeste 53 Sur 0 -- -- 67
2021-02-09 06:00:00 -0.1 20 Sudoeste 44 Sudoeste 0 -- -- 63
2021-02-09 05:00:00 -- 14 Sur 31 Sur 0 -- -- 62
2021-02-09 04:00:00 -- 14 Sudoeste 41 Sur 0 -- -- 62
2021-02-09 03:00:00 -- 24 Sur 35 Sudoeste 0 -- -- 59
2021-02-09 02:00:00 -0.1 16 Sudoeste 39 Sudoeste 0 -- -- 61
2021-02-09 01:00:00 -0.1 17 Sudoeste 40 Sudoeste 0 -- -- 66
2021-02-09 00:00:00 -0.1 12 Sur 36 Sudoeste 0 -- -- 70
2021-02-08 23:00:00 -0.1 19 Oeste 40 Sudoeste 0 -- -- 80
2021-02-08 22:00:00 -0.1 17 Oeste 43 Noroeste 0 -- -- 84
2021-02-08 21:00:00 -0.1 26 Oeste 58 Oeste 0 -- -- 85
2021-02-08 20:00:00 -0.1 39 Oeste 56 Oeste 0 -- -- 83
2021-02-08 19:00:00 5.4 39 Oeste 54 Oeste 0 -- -- 81
2021-02-08 18:00:00 -- 39 Oeste 54 Oeste 0 -- -- 76
2021-02-08 17:00:00 37.5 37 Oeste 50 Oeste 0 -- -- 76
2021-02-08 16:00:00 16.8 26 Oeste 44 Oeste 0 -- -- 76
2021-02-08 15:00:00 18.4 29 Oeste 49 Oeste 0 -- -- 70
2021-02-08 14:00:00 12.9 31 Oeste 51 Oeste 0 -- -- 68
2021-02-08 13:00:00 6.5 30 Oeste 56 Oeste 0 -- -- 61
2021-02-08 12:00:00 -- 24 Oeste 48 Oeste 0.2 -- -- 63
2021-02-08 11:00:00 -0.1 24 Oeste 46 Oeste 0 -- -- 69
2021-02-08 10:00:00 -0.1 27 Oeste 44 Oeste 0 -- -- 72
2021-02-08 09:00:00 -0.1 22 Oeste 40 Sudoeste 0 -- -- 67
2021-02-08 08:00:00 -- 18 Oeste 36 Sudoeste 0 -- -- 67
2021-02-08 07:00:00 -15.9 22 Oeste 48 Sudoeste 0 -- -- 62
2021-02-08 06:00:00 -11.6 20 Sudoeste 51 Sudoeste 0 -- -- 61
2021-02-08 05:00:00 -9.3 29 Sudoeste 57 Sudoeste 0.2 -- -- 67
2021-02-08 04:00:00 -- 32 Sudoeste 57 Sudoeste 0 -- -- 66
2021-02-08 03:00:00 -0.1 35 Sudoeste 57 Sur 0 -- -- 72
2021-02-08 02:00:00 -0.1 36 Sudoeste 61 Sur 0 -- -- 64
2021-02-08 01:00:00 -0.1 39 Sur 62 Sur 0 -- -- 67
2021-02-08 00:00:00 13.4 30 Sur 46 Sur 0 -- -- 64
2021-02-07 23:00:00 12.7 25 Sudoeste 48 Sur 0.2 -- -- 68
2021-02-07 22:00:00 11.3 31 Sudoeste 50 Sur 0 -- -- 75
2021-02-07 21:00:00 10.3 8 Sur 23 Sudoeste 0.2 -- -- 81
2021-02-07 20:00:00 10 7 Sudeste 10 Sudeste 0 -- -- 75
2021-02-07 19:00:00 10.4 4 Sudoeste 9 Oeste 0 -- -- 74
2021-02-07 18:00:00 11 2 Oeste 24 Oeste 0 -- -- 69
2021-02-07 17:00:00 11.4 15 Oeste 26 Oeste 0 -- -- 71
2021-02-07 16:00:00 11 21 Oeste 32 Oeste 0 -- -- 66
2021-02-07 15:00:00 10.2 22 Oeste 29 Oeste 0 -- -- 64
2021-02-07 14:00:00 11.3 23 Oeste 32 Oeste 0 -- -- 66
2021-02-07 13:00:00 11 19 Oeste 33 Oeste 0 -- -- 67
2021-02-07 12:00:00 10.7 20 Oeste 41 Sudoeste 0 -- -- 75
2021-02-07 11:00:00 10.1 23 Oeste 38 Oeste 0.2 -- -- 77
2021-02-07 10:00:00 9 24 Oeste 46 Oeste 0 -- -- 83
2021-02-07 09:00:00 9 27 Oeste 45 Oeste 0.6 -- -- 85
2021-02-07 08:00:00 9 24 Oeste 49 Oeste 0 -- -- 84
2021-02-07 07:00:00 8.7 26 Oeste 46 Sudoeste 0.2 -- -- 86
2021-02-07 06:00:00 8.6 20 Oeste 42 Sudoeste 0.2 -- -- 88
2021-02-07 05:00:00 8.5 24 Oeste 61 Oeste 0.2 -- -- 89
2021-02-07 04:00:00 8.7 21 Oeste 58 Oeste 0.6 -- -- 90
2021-02-07 03:00:00 8.9 24 Oeste 49 Oeste 0 -- -- 89
2021-02-07 02:00:00 8.9 37 Oeste 69 Oeste 0.6 -- -- 93
2021-02-07 01:00:00 10.4 35 Oeste 66 Oeste 0.2 -- -- 75
2021-02-07 00:00:00 10.6 44 Oeste 59 Oeste 0 -- -- 71
2021-02-06 23:00:00 10.7 44 Oeste 58 Noroeste 0.2 -- -- 70
2021-02-06 22:00:00 10.1 48 Oeste 71 Oeste 0 -- -- 83
2021-02-06 21:00:00 10.8 39 Noroeste 59 Oeste 0 -- -- 77
2021-02-06 20:00:00 11.4 41 Oeste 54 Noroeste 0.2 -- -- 68
2021-02-06 19:00:00 11.3 39 Noroeste 50 Noroeste 0 -- -- 74
2021-02-06 18:00:00 11.3 37 Noroeste 49 Noroeste 0 -- -- 74
2021-02-06 17:00:00 11.2 41 Noroeste 50 Noroeste 0.2 -- -- 79
2021-02-06 16:00:00 10.7 42 Noroeste 64 Oeste 0.4 -- -- 90
2021-02-06 15:00:00 10.7 57 Noroeste 71 Oeste 1.4 -- -- 99
2021-02-06 14:00:00 10.9 51 Noroeste 67 Noroeste 3.4 -- -- 100
2021-02-06 13:00:00 10.6 59 Noroeste 72 Noroeste 4 -- -- 100
2021-02-06 12:00:00 11.4 45 Noroeste 59 Noroeste 1.6 -- -- 100
2021-02-06 11:00:00 12.2 17 Noroeste 28 Norte 0 -- -- 100
2021-02-06 10:00:00 12.5 11 Norte 33 Nordeste 0 -- -- 100
2021-02-06 09:00:00 12.7 19 Nordeste 23 Nordeste 0 -- -- 100
2021-02-06 08:00:00 12.9 19 Nordeste 25 Nordeste 0 -- -- 100
2021-02-06 07:00:00 13 19 Nordeste 28 Nordeste 0 -- -- 100
2021-02-06 06:00:00 13.1 22 Este 36 Este 0 -- -- 100
2021-02-06 05:00:00 13.1 29 Este 37 Este 0 -- -- 100
2021-02-06 04:00:00 13.5 26 Este 35 Este 0 -- -- 100
2021-02-06 03:00:00 13.5 27 Este 37 Este 0 -- -- 100
2021-02-06 02:00:00 13.4 29 Este 36 Nordeste 0 -- -- 100
2021-02-06 01:00:00 13.4 19 Este 27 Nordeste 0 -- -- 100
2021-02-06 00:00:00 13.4 22 Nordeste 30 Este 0 -- -- 99
2021-02-05 23:00:00 13.3 8 Sudeste 23 Este 0 -- -- 99
2021-02-05 22:00:00 13.4 20 Este 26 Este 0 -- -- 99
2021-02-05 21:00:00 13.2 12 Nordeste 14 Nordeste 0 -- -- 98
2021-02-05 20:00:00 13.1 8 Nordeste 20 Nordeste 0 -- -- 99
2021-02-05 19:00:00 13.1 11 Nordeste 17 Nordeste 0 -- -- 98
2021-02-05 18:00:00 13.1 12 Nordeste 17 Nordeste 0 -- -- 99
2021-02-05 17:00:00 13.2 14 Nordeste 19 Nordeste 0 -- -- 99
2021-02-05 16:00:00 13.3 17 Nordeste 21 Nordeste 0 -- -- 99
2021-02-05 15:00:00 13.5 17 Nordeste 25 Este 0 -- -- 99
2021-02-05 14:00:00 13.7 10 Nordeste 24 Este 0 -- -- 99
2021-02-05 13:00:00 13.4 16 Este 23 Este 0 -- -- 99
2021-02-05 12:00:00 13.5 14 Nordeste 21 Este 0 -- -- 98
2021-02-05 11:00:00 13.7 9 Nordeste 15 Nordeste 0 -- -- 98
2021-02-05 10:00:00 13.4 5 Nordeste 10 Nordeste 0 -- -- 98
2021-02-05 09:00:00 13.3 8 Nordeste 18 Este 0 -- -- 97
2021-02-05 08:00:00 13.2 3 Sudeste 21 Este 0 -- -- 97
2021-02-05 07:00:00 13.3 18 Este 27 Este 0 -- -- 96
2021-02-05 06:00:00 13.5 19 Este 23 Este 0 -- -- 97
2021-02-05 05:00:00 13.4 12 Este 18 Este 0 -- -- 97
2021-02-05 04:00:00 13.3 13 Este 15 Este 0 -- -- 97
2021-02-05 03:00:00 13.3 6 Este 12 Este 0 -- -- 97
2021-02-05 02:00:00 13.3 7 Este 15 Este 0 -- -- 97
2021-02-05 01:00:00 13 7 Sudeste 13 Sudeste 0 -- -- 97
2021-02-05 00:00:00 12.9 9 Sudeste 27 Este 0 -- -- 97
2021-02-04 23:00:00 13.3 15 Este 25 Este 0 -- -- 97
2021-02-04 22:00:00 13.5 3 Norte 15 Oeste 0 -- -- 96
2021-02-04 21:00:00 13.2 6 Norte 23 Oeste 0.6 -- -- 95
2021-02-04 20:00:00 13.5 14 Oeste 28 Noroeste 6 -- -- 95
2021-02-04 19:00:00 14.9 13 Noroeste 20 Noroeste 0 -- -- 92
2021-02-04 18:00:00 15.1 8 Este 17 Este 0 -- -- 86
2021-02-04 17:00:00 15.3 10 Este 21 Este 0.2 -- -- 88
2021-02-04 16:00:00 16.4 10 Nordeste 15 Nordeste 0 -- -- 82
2021-02-04 15:00:00 17.9 3 Oeste 8 Este 0 -- -- 68
2021-02-04 14:00:00 18.5 5 Sudeste 13 Este 0 -- -- 64
2021-02-04 13:00:00 19.2 5 Sur 32 Sur 0 -- -- 57
2021-02-04 12:00:00 18.7 15 Sur 27 Sudoeste 0 -- -- 57
2021-02-04 11:00:00 18.3 5 Sudoeste 22 Sur 0 -- -- 60
2021-02-04 10:00:00 17.3 3 Sudeste 13 Sur 0 -- -- 62
2021-02-04 09:00:00 16.8 2 Este 11 Este 0 -- -- 62
2021-02-04 08:00:00 17.4 5 Sur 23 Sudoeste 0 -- -- 59
2021-02-04 07:00:00 17.8 10 Sur 33 Sur 0 -- -- 56
2021-02-04 06:00:00 18 16 Sur 42 Sudoeste 0 -- -- 56
2021-02-04 05:00:00 18.1 24 Sur 44 Sur 0 -- -- 55
2021-02-04 04:00:00 18.2 23 Sur 42 Sur 0 -- -- 55
2021-02-04 03:00:00 18.1 20 Sur 40 Sur 0 -- -- 55
2021-02-04 02:00:00 18.3 18 Sur 37 Sur 0 -- -- 57
2021-02-04 01:00:00 18.8 24 Sur 44 Sur 0 -- -- 56
2021-02-04 00:00:00 18.2 18 Sur 44 Sur 0 -- -- 57